Time;durP1;ratioP1;P1;durP2;ratioP2;P2;SDS_P1;SDS_P2;PMS_P1;PMS_P2;Temp;Humidity;BMP_temperature;BMP_pressure;BME280_temperature;BME280_humidity;BME280_pressure;Samples;Min_cycle;Max_cycle;Signal;HPM_P1;HPM_P2
2021/10/09 00:00:12;;;;;;;12.52;7.53;;;24.60;33.60;;;;;;6210659;28;80514;-70
2021/10/09 00:03:12;;;;;;;13.75;7.85;;;24.70;34.00;;;;;;6210557;28;81256;-71
2021/10/09 00:06:13;;;;;;;13.57;8.38;;;24.60;34.30;;;;;;6210402;28;81551;-71
2021/10/09 00:09:13;;;;;;;16.17;8.88;;;24.60;33.90;;;;;;6210374;28;81380;-70
2021/10/09 00:12:14;;;;;;;14.88;8.43;;;24.60;33.70;;;;;;6210626;28;81330;-70
2021/10/09 00:15:14;;;;;;;12.45;8.50;;;24.60;33.80;;;;;;6210376;28;80159;-71
2021/10/09 00:18:15;;;;;;;12.35;7.85;;;24.60;33.80;;;;;;6210190;28;80697;-71
2021/10/09 00:21:15;;;;;;;12.05;7.53;;;24.60;33.70;;;;;;6210034;28;81461;-70
2021/10/09 00:24:16;;;;;;;13.25;8.07;;;24.60;33.60;;;;;;6210008;28;80546;-70
2021/10/09 00:27:16;;;;;;;15.13;8.10;;;24.60;33.50;;;;;;6210406;28;80144;-69
2021/10/09 00:30:17;;;;;;;14.40;8.10;;;24.60;33.50;;;;;;6210347;28;80310;-69
2021/10/09 00:33:17;;;;;;;14.55;7.88;;;24.60;33.50;;;;;;6204929;28;81874;-69
2021/10/09 00:36:18;;;;;;;14.02;7.90;;;24.60;33.40;;;;;;6210348;28;80377;-70
2021/10/09 00:39:18;;;;;;;13.52;8.43;;;24.60;33.50;;;;;;6198461;28;83298;-69
2021/10/09 00:42:19;;;;;;;12.65;7.95;;;24.60;33.30;;;;;;6210290;28;80912;-69
2021/10/09 00:45:20;;;;;;;14.73;8.23;;;24.60;33.50;;;;;;6196329;28;80520;-69
2021/10/09 00:48:20;;;;;;;13.55;7.85;;;24.60;33.30;;;;;;6210322;28;80970;-70
2021/10/09 00:51:21;;;;;;;12.18;8.00;;;24.60;33.40;;;;;;6209847;28;80361;-69
2021/10/09 00:54:21;;;;;;;12.93;8.20;;;24.60;33.50;;;;;;6204595;28;80273;-70
2021/10/09 00:57:22;;;;;;;12.43;8.35;;;24.50;33.20;;;;;;6195895;28;83360;-70
2021/10/09 01:00:22;;;;;;;15.35;7.72;;;24.50;33.20;;;;;;6195792;28;83588;-70
2021/10/09 01:03:23;;;;;;;11.23;7.65;;;24.50;33.00;;;;;;6213932;28;80570;-70
2021/10/09 01:06:24;;;;;;;16.73;8.02;;;24.50;33.30;;;;;;6214103;28;80371;-70
2021/10/09 01:09:24;;;;;;;13.73;8.13;;;24.50;32.90;;;;;;6213055;28;80788;-70
2021/10/09 01:12:25;;;;;;;13.43;7.70;;;24.50;33.00;;;;;;6195777;28;82441;-70
2021/10/09 01:15:32;;;;;;;16.95;7.60;;;24.50;32.90;;;;;;6195851;28;81338;-70
2021/10/09 01:18:34;;;;;;;13.55;7.68;;;24.50;33.10;;;;;;6194764;28;82541;-70
2021/10/09 01:21:35;;;;;;;11.10;7.35;;;24.50;33.30;;;;;;6211850;28;80034;-71
2021/10/09 01:24:35;;;;;;;10.43;6.95;;;24.50;33.40;;;;;;6195341;28;82278;-71
2021/10/09 01:27:36;;;;;;;11.57;7.70;;;24.50;33.70;;;;;;6211971;28;82151;-71
2021/10/09 01:30:39;;;;;;;12.50;7.70;;;24.50;33.60;;;;;;6195537;28;83078;-71
2021/10/09 01:33:39;;;;;;;13.43;7.68;;;24.50;33.60;;;;;;6213610;28;80245;-72
2021/10/09 01:36:40;;;;;;;14.80;7.93;;;24.50;33.40;;;;;;6195859;28;81531;-71
2021/10/09 01:39:42;;;;;;;15.65;7.97;;;24.50;33.40;;;;;;6212212;28;82894;-70
2021/10/09 01:42:42;;;;;;;12.40;8.32;;;24.50;33.60;;;;;;6213408;28;80438;-71
2021/10/09 01:45:43;;;;;;;13.15;8.15;;;24.50;33.60;;;;;;6195217;28;83210;-70
2021/10/09 01:48:43;;;;;;;13.05;6.80;;;24.50;33.50;;;;;;6189139;28;83194;-71
2021/10/09 01:51:44;;;;;;;13.50;8.15;;;24.40;33.70;;;;;;6193734;28;82942;-70
2021/10/09 01:54:46;;;;;;;11.20;7.63;;;24.40;33.80;;;;;;6191596;28;83146;-70
2021/10/09 01:57:47;;;;;;;14.35;7.85;;;24.40;33.80;;;;;;6194712;28;83000;-70
2021/10/09 02:00:47;;;;;;;11.00;7.70;;;24.40;33.80;;;;;;6194577;28;82149;-70
2021/10/09 02:03:49;;;;;;;15.45;7.70;;;24.40;33.70;;;;;;6194745;28;81663;-70
2021/10/09 02:06:50;;;;;;;13.95;7.88;;;24.40;34.10;;;;;;6211541;28;83705;-70
2021/10/09 02:09:51;;;;;;;13.27;7.47;;;24.40;33.80;;;;;;6194764;28;83408;-70
2021/10/09 02:12:53;;;;;;;12.95;8.05;;;24.40;34.30;;;;;;6193596;28;83164;-69
2021/10/09 02:16:05;;;;;;;15.43;8.20;;;24.40;34.00;;;;;;6187382;28;81742;-71
2021/10/09 02:25:45;;;;;;;11.30;7.10;;;24.40;33.90;;;;;;6199101;28;83723;-69
2021/10/09 02:28:46;;;;;;;15.80;8.65;;;24.40;34.00;;;;;;6210895;28;83542;-69
2021/10/09 02:31:46;;;;;;;12.50;7.18;;;24.40;34.10;;;;;;6200005;28;83571;-69
2021/10/09 02:34:47;;;;;;;13.45;7.20;;;24.40;34.00;;;;;;6208487;28;81835;-69
2021/10/09 02:37:48;;;;;;;12.25;7.90;;;24.40;34.10;;;;;;6212337;28;81780;-69
2021/10/09 02:40:49;;;;;;;16.40;7.72;;;24.40;34.10;;;;;;6211080;28;80669;-68
2021/10/09 02:43:50;;;;;;;12.00;7.70;;;24.40;33.90;;;;;;6193890;28;83538;-69
2021/10/09 02:46:50;;;;;;;11.60;7.50;;;24.40;34.10;;;;;;6212054;28;80267;-68
2021/10/09 02:49:52;;;;;;;13.00;7.50;;;24.40;34.20;;;;;;6185190;28;83356;-68
2021/10/09 02:52:53;;;;;;;18.10;8.18;;;24.40;33.90;;;;;;6200509;28;83739;-69
2021/10/09 02:55:53;;;;;;;13.50;7.57;;;24.40;34.00;;;;;;6187242;28;80301;-70
2021/10/09 02:58:54;;;;;;;10.70;7.03;;;24.40;34.00;;;;;;6185320;28;83162;-70
2021/10/09 03:01:55;;;;;;;14.80;7.53;;;24.40;34.00;;;;;;6201750;28;82038;-68
2021/10/09 03:04:56;;;;;;;10.32;7.53;;;24.40;34.20;;;;;;6202151;28;83331;-67
2021/10/09 03:07:57;;;;;;;14.38;7.65;;;24.40;34.20;;;;;;6187108;28;80247;-69
2021/10/09 03:10:57;;;;;;;11.98;7.25;;;24.40;34.10;;;;;;6189814;28;81894;-70
2021/10/09 03:13:58;;;;;;;10.55;7.53;;;24.40;33.90;;;;;;6201918;28;83094;-69
2021/10/09 03:16:58;;;;;;;14.88;8.18;;;24.30;34.00;;;;;;6175253;28;83397;-68
2021/10/09 03:20:00;;;;;;;12.57;7.57;;;24.30;34.00;;;;;;6184872;28;83336;-68
2021/10/09 03:23:01;;;;;;;15.35;8.60;;;24.30;34.30;;;;;;6186268;28;80383;-69
2021/10/09 03:26:04;;;;;;;11.52;7.50;;;24.30;34.60;;;;;;6201533;28;82626;-70
2021/10/09 03:29:04;;;;;;;14.63;8.43;;;24.40;34.40;;;;;;6189292;28;82965;-68
2021/10/09 03:32:06;;;;;;;12.60;7.07;;;24.40;34.30;;;;;;6201679;28;83278;-68
2021/10/09 03:35:06;;;;;;;15.52;7.55;;;24.30;34.10;;;;;;6185138;28;81902;-68
2021/10/09 03:38:07;;;;;;;14.40;7.97;;;24.30;33.70;;;;;;6184527;28;83675;-68
2021/10/09 03:41:11;;;;;;;12.23;7.75;;;24.30;33.50;;;;;;6199787;28;83274;-69
2021/10/09 03:44:12;;;;;;;16.55;8.45;;;24.30;33.50;;;;;;6186101;28;80542;-69
2021/10/09 03:53:32;;;;;;;12.15;7.20;;;24.40;33.20;;;;;;6204237;28;83339;-69
2021/10/09 03:56:32;;;;;;;13.80;7.97;;;24.40;33.30;;;;;;6210979;28;80307;-69
2021/10/09 03:59:33;;;;;;;11.73;7.43;;;24.40;33.30;;;;;;6210812;28;80574;-68
2021/10/09 04:02:33;;;;;;;12.07;7.57;;;24.50;33.90;;;;;;6215402;28;83366;-67
2021/10/09 04:05:35;;;;;;;15.00;8.10;;;24.50;33.50;;;;;;6191875;28;83430;-68
2021/10/09 04:08:36;;;;;;;12.85;7.90;;;24.40;33.70;;;;;;6209720;28;80726;-68
2021/10/09 04:11:36;;;;;;;10.40;6.97;;;24.50;34.00;;;;;;6192286;28;83227;-68
2021/10/09 04:14:37;;;;;;;11.98;7.72;;;24.50;33.90;;;;;;6192137;28;82086;-68
2021/10/09 04:17:38;;;;;;;13.10;8.07;;;24.50;33.60;;;;;;6204382;28;81623;-68
2021/10/09 04:20:41;;;;;;;12.82;7.60;;;24.50;33.40;;;;;;6196718;28;81865;-67
2021/10/09 04:23:41;;;;;;;13.02;7.82;;;24.50;33.30;;;;;;6210621;28;80264;-69
2021/10/09 04:26:42;;;;;;;12.43;8.07;;;24.50;33.10;;;;;;6210290;28;80414;-68
2021/10/09 04:29:43;;;;;;;12.00;7.97;;;24.50;33.20;;;;;;6203124;28;82795;-68
2021/10/09 04:32:44;;;;;;;14.25;8.63;;;24.50;33.20;;;;;;6196527;28;83418;-69
2021/10/09 04:35:45;;;;;;;15.75;7.88;;;24.40;33.10;;;;;;6196429;28;83449;-74
2021/10/09 04:38:46;;;;;;;15.43;8.18;;;24.50;33.50;;;;;;6211550;28;82115;-75
2021/10/09 04:41:47;;;;;;;15.52;7.68;;;24.40;33.40;;;;;;6195290;28;83116;-76
2021/10/09 04:44:49;;;;;;;13.85;7.78;;;24.50;33.90;;;;;;6195765;28;82726;-74
2021/10/09 04:47:50;;;;;;;12.23;8.00;;;24.50;34.00;;;;;;6199533;28;83177;-78
2021/10/09 04:50:50;;;;;;;13.68;8.02;;;24.50;34.30;;;;;;6188706;28;81755;-75
2021/10/09 04:53:51;;;;;;;11.50;7.80;;;24.40;34.10;;;;;;6187742;28;82252;-70
2021/10/09 04:56:52;;;;;;;11.68;7.88;;;24.40;34.60;;;;;;6197873;28;83159;-78
2021/10/09 04:59:53;;;;;;;12.85;8.13;;;24.40;35.20;;;;;;6204706;28;83704;-76
2021/10/09 05:02:55;;;;;;;15.15;8.75;;;24.40;34.70;;;;;;6191981;28;83608;-77
2021/10/09 05:05:56;;;;;;;14.88;8.32;;;24.40;34.40;;;;;;6203479;28;83353;-76
2021/10/09 05:08:57;;;;;;;12.82;8.02;;;24.40;34.60;;;;;;6187715;28;82978;-75
2021/10/09 05:11:59;;;;;;;12.40;7.88;;;24.40;34.50;;;;;;6188582;28;83487;-74
2021/10/09 05:15:00;;;;;;;15.50;7.75;;;24.40;34.60;;;;;;6203871;28;82449;-74
2021/10/09 05:18:01;;;;;;;12.07;7.68;;;24.40;35.10;;;;;;6188555;28;83532;-76
2021/10/09 05:21:02;;;;;;;13.38;7.60;;;24.40;35.80;;;;;;6204700;28;83552;-75
2021/10/09 05:24:03;;;;;;;12.52;7.43;;;24.40;35.40;;;;;;6186471;28;83626;-73
2021/10/09 05:27:04;;;;;;;12.20;6.90;;;24.40;36.20;;;;;;6204537;28;83252;-74
2021/10/09 05:30:07;;;;;;;13.95;7.80;;;24.40;36.30;;;;;;6186655;28;83492;-74
2021/10/09 05:36:13;;;;;;;13.90;8.27;;;24.50;36.00;;;;;;6202981;28;83615;-73
2021/10/09 05:39:14;;;;;;;13.32;8.45;;;24.40;35.90;;;;;;6201976;28;84029;-74
2021/10/09 05:42:14;;;;;;;14.82;8.13;;;24.50;36.20;;;;;;6187126;28;80293;-74
2021/10/09 05:45:15;;;;;;;14.85;8.32;;;24.50;36.00;;;;;;6187297;28;80651;-74
2021/10/09 05:48:16;;;;;;;14.05;8.07;;;24.60;35.90;;;;;;6202565;28;82960;-74
2021/10/09 05:51:33;;;;;;;11.95;7.57;;;24.50;36.20;;;;;;6202357;28;81665;-74
2021/10/09 05:54:52;;;;;;;12.52;7.35;;;24.50;36.10;;;;;;6200130;28;84536;-75
2021/10/09 05:58:03;;;;;;;12.43;8.02;;;24.50;36.80;;;;;;6216484;28;81556;-74
2021/10/09 06:44:18;;;;;;;14.63;8.27;;;24.70;36.70;;;;;;6201115;28;83502;-73
2021/10/09 07:00:30;;;;;;;13.02;8.23;;;24.80;37.00;;;;;;6199003;28;81999;-77
2021/10/09 07:03:32;;;;;;;16.15;8.25;;;24.80;37.00;;;;;;6185795;28;81355;-71
2021/10/09 07:06:36;;;;;;;11.93;7.57;;;24.80;36.70;;;;;;6200366;28;82954;-76
2021/10/09 07:09:41;;;;;;;11.93;7.70;;;24.80;36.50;;;;;;6182307;28;80559;-75
2021/10/09 07:12:49;;;;;;;14.07;7.72;;;24.80;36.30;;;;;;6200616;28;83297;-76
2021/10/09 07:15:50;;;;;;;14.25;8.02;;;24.80;36.50;;;;;;6183311;28;82688;-74
2021/10/09 07:18:50;;;;;;;18.05;8.32;;;24.80;36.30;;;;;;6200867;28;83556;-76
2021/10/09 07:21:51;;;;;;;234.75;88.80;;;24.90;36.40;;;;;;6201953;28;83578;-75
2021/10/09 07:24:52;;;;;;;326.95;121.28;;;24.90;36.60;;;;;;6198913;28;83363;-76
2021/10/09 07:27:52;;;;;;;272.20;102.10;;;24.90;36.80;;;;;;6178151;28;85681;-72
2021/10/09 07:30:53;;;;;;;164.55;64.03;;;24.90;37.20;;;;;;6190631;28;86400;-74
2021/10/09 07:33:54;;;;;;;141.55;56.25;;;24.90;37.20;;;;;;6183008;28;85361;-77
2021/10/09 07:36:54;;;;;;;122.35;47.08;;;24.90;37.20;;;;;;6183308;28;83221;-75
2021/10/09 07:39:55;;;;;;;183.23;69.32;;;25.00;37.20;;;;;;6182802;28;83745;-76
2021/10/09 07:42:56;;;;;;;250.88;100.13;;;25.00;37.20;;;;;;6197832;28;85998;-75
2021/10/09 07:45:56;;;;;;;219.18;84.47;;;25.00;37.10;;;;;;6179337;28;85142;-77
2021/10/09 07:48:57;;;;;;;177.82;73.38;;;25.00;36.70;;;;;;6182984;28;85453;-75
2021/10/09 07:51:57;;;;;;;178.82;68.28;;;25.10;36.80;;;;;;6204018;28;83879;-75
2021/10/09 07:54:58;;;;;;;158.38;63.78;;;25.10;36.80;;;;;;6207918;28;83126;-75
2021/10/09 07:57:58;;;;;;;151.25;57.55;;;25.10;36.80;;;;;;6188678;28;84464;-77
2021/10/09 08:00:59;;;;;;;128.20;52.10;;;25.10;36.60;;;;;;6206860;28;83041;-76
2021/10/09 08:03:59;;;;;;;127.35;51.45;;;25.10;36.60;;;;;;6209305;28;83490;-76
2021/10/09 08:07:00;;;;;;;117.95;46.80;;;25.10;36.90;;;;;;6211940;28;82945;-75
2021/10/09 08:10:00;;;;;;;118.68;44.80;;;25.20;36.90;;;;;;6204288;28;84242;-76
2021/10/09 08:13:01;;;;;;;107.78;44.17;;;25.20;37.20;;;;;;6211623;28;82933;-74
2021/10/09 08:16:01;;;;;;;99.93;41.00;;;25.20;36.90;;;;;;6211172;28;83109;-75
2021/10/09 08:19:02;;;;;;;93.35;38.17;;;25.20;36.70;;;;;;6211826;28;82974;-77
2021/10/09 08:22:07;;;;;;;92.80;38.47;;;25.30;36.80;;;;;;6212067;28;83081;-77
2021/10/09 08:25:37;;;;;;;89.72;35.63;;;25.30;37.10;;;;;;6193665;28;86126;-76
2021/10/09 08:35:38;;;;;;;75.13;33.33;;;25.30;37.00;;;;;;6212117;28;83024;-77
2021/10/09 08:41:45;;;;;;;73.32;29.83;;;25.40;37.10;;;;;;6212599;28;83803;-76
2021/10/09 08:44:45;;;;;;;57.83;28.25;;;25.40;37.20;;;;;;6212252;28;84153;-78
2021/10/09 08:47:47;;;;;;;61.90;27.40;;;25.40;37.10;;;;;;6212191;28;83011;-75
2021/10/09 08:50:48;;;;;;;59.95;26.83;;;25.40;37.00;;;;;;6211785;28;82952;-74
2021/10/09 08:53:48;;;;;;;48.50;23.55;;;25.40;37.10;;;;;;6210554;28;84783;-74
2021/10/09 08:56:49;;;;;;;44.97;19.48;;;25.30;36.20;;;;;;6210414;28;83076;-73
2021/10/09 08:59:53;;;;;;;38.65;17.75;;;25.30;35.30;;;;;;6210465;28;84649;-78
2021/10/09 09:03:02;;;;;;;38.97;17.73;;;25.20;33.40;;;;;;6211071;28;83694;-73
2021/10/09 09:06:21;;;;;;;32.03;15.82;;;25.20;32.90;;;;;;6210249;28;82998;-69
2021/10/09 09:09:32;;;;;;;32.08;16.15;;;25.30;32.90;;;;;;6210792;28;83128;-77
2021/10/09 09:35:25;;;;;;;21.20;11.75;;;25.50;32.70;;;;;;6211681;28;86274;-78
2021/10/09 09:41:45;;;;;;;21.85;11.73;;;25.50;32.80;;;;;;6210290;28;83015;-80
2021/10/09 09:44:47;;;;;;;27.17;12.57;;;25.50;32.70;;;;;;6191571;28;85309;-78
2021/10/09 09:47:48;;;;;;;26.20;13.00;;;25.50;32.90;;;;;;6191913;28;85294;-78
2021/10/09 09:50:49;;;;;;;32.33;12.90;;;25.60;33.10;;;;;;6209905;28;83045;-76
2021/10/09 09:53:49;;;;;;;32.00;14.00;;;25.60;33.10;;;;;;6210285;28;82978;-80
2021/10/09 09:56:50;;;;;;;36.95;15.27;;;25.60;33.10;;;;;;6209542;28;84516;-79
2021/10/09 09:59:50;;;;;;;47.03;17.25;;;25.70;33.50;;;;;;6205238;28;83018;-81
2021/10/09 10:02:51;;;;;;;48.10;17.65;;;25.60;33.60;;;;;;6209547;28;83599;-79
2021/10/09 10:05:51;;;;;;;54.15;19.95;;;25.70;33.90;;;;;;6197703;28;83376;-78
2021/10/09 10:08:52;;;;;;;61.05;22.33;;;25.70;34.20;;;;;;6208474;28;82919;-79
2021/10/09 10:11:52;;;;;;;55.30;21.02;;;25.70;34.50;;;;;;6204121;28;83264;-78
2021/10/09 10:14:53;;;;;;;63.75;23.30;;;25.70;34.50;;;;;;6202497;28;83752;-78
2021/10/09 10:17:53;;;;;;;75.85;24.98;;;25.70;34.80;;;;;;6208147;28;85933;-79
2021/10/09 10:20:54;;;;;;;70.78;25.52;;;25.70;34.90;;;;;;6208165;28;83034;-79
2021/10/09 10:23:54;;;;;;;74.35;25.85;;;25.70;35.10;;;;;;6208612;28;83025;-75
2021/10/09 10:26:55;;;;;;;91.20;47.45;;;25.80;35.20;;;;;;6207109;28;84189;-78
2021/10/09 10:29:55;;;;;;;90.70;52.60;;;25.70;35.20;;;;;;6209248;28;85063;-79
2021/10/09 10:32:57;;;;;;;85.03;47.38;;;25.70;34.40;;;;;;6208268;28;83460;-77
2021/10/09 10:35:58;;;;;;;66.82;38.90;;;25.70;33.60;;;;;;6207121;28;83154;-74
2021/10/09 10:38:58;;;;;;;50.90;28.70;;;25.80;32.90;;;;;;6206631;28;84318;-78
2021/10/09 10:42:01;;;;;;;53.03;25.60;;;25.80;32.20;;;;;;6190753;28;86017;-75
2021/10/09 10:48:05;;;;;;;25.70;14.27;;;25.80;31.80;;;;;;6211894;28;83339;-76
2021/10/09 10:51:13;;;;;;;21.77;11.27;;;25.80;30.20;;;;;;6211692;28;82907;-76
2021/10/09 10:54:16;;;;;;;30.42;12.05;;;25.70;30.30;;;;;;6215556;28;82877;-77
2021/10/09 10:57:17;;;;;;;19.30;11.68;;;25.80;30.80;;;;;;6206815;28;82923;-72
2021/10/09 11:00:18;;;;;;;20.30;10.70;;;25.70;31.20;;;;;;6196081;28;85823;-73
2021/10/09 11:03:18;;;;;;;19.02;10.82;;;25.80;31.20;;;;;;6197395;28;82991;-75
2021/10/09 11:06:19;;;;;;;19.85;9.82;;;25.80;31.20;;;;;;6213156;28;83507;-75
2021/10/09 11:09:19;;;;;;;21.70;9.15;;;25.80;31.40;;;;;;6211492;28;83452;-75
2021/10/09 11:12:20;;;;;;;17.92;9.57;;;25.90;31.90;;;;;;6212066;28;80265;-76
2021/10/09 11:15:22;;;;;;;17.10;8.02;;;25.90;32.00;;;;;;6209707;28;81201;-74
2021/10/09 11:18:23;;;;;;;13.05;7.90;;;25.90;32.20;;;;;;6210005;28;80539;-75
2021/10/09 11:21:23;;;;;;;13.15;7.45;;;25.90;32.60;;;;;;6210145;28;80296;-73
2021/10/09 11:24:24;;;;;;;15.27;7.35;;;26.00;33.00;;;;;;6208374;28;80312;-75
2021/10/09 11:27:24;;;;;;;9.82;6.57;;;26.00;33.60;;;;;;6210394;28;81641;-76
2021/10/09 11:30:25;;;;;;;11.05;6.90;;;26.00;34.60;;;;;;6210594;28;80917;-75
2021/10/09 11:33:26;;;;;;;13.10;6.47;;;26.10;34.90;;;;;;6211162;28;80319;-68
2021/10/09 11:36:26;;;;;;;12.88;6.97;;;26.10;35.00;;;;;;6210351;28;81348;-69
2021/10/09 11:39:27;;;;;;;14.00;6.32;;;26.10;35.00;;;;;;6208930;28;80660;-70
2021/10/09 11:42:31;;;;;;;12.45;6.80;;;26.10;35.10;;;;;;6202822;28;80616;-69
2021/10/09 11:45:40;;;;;;;11.93;6.70;;;26.10;35.20;;;;;;6210100;28;80223;-69
2021/10/09 11:55:19;;;;;;;12.68;7.30;;;26.10;35.60;;;;;;6209991;28;80623;-72
2021/10/09 11:58:19;;;;;;;11.35;7.30;;;26.00;34.70;;;;;;6209771;28;81936;-72
2021/10/09 12:01:20;;;;;;;10.38;6.88;;;26.00;33.40;;;;;;6210201;28;80213;-71
2021/10/09 12:04:21;;;;;;;11.63;6.85;;;26.00;32.10;;;;;;6191881;28;82129;-71
2021/10/09 12:07:22;;;;;;;11.90;6.45;;;25.90;30.60;;;;;;6209813;28;80087;-70
2021/10/09 12:10:23;;;;;;;16.20;7.68;;;25.90;30.10;;;;;;6209946;28;82215;-71
2021/10/09 12:13:23;;;;;;;13.75;7.38;;;25.90;30.40;;;;;;6209040;28;80312;-71
2021/10/09 12:16:24;;;;;;;15.27;6.30;;;25.90;30.30;;;;;;6206365;28;80638;-70
2021/10/09 12:19:24;;;;;;;12.45;7.18;;;25.80;29.90;;;;;;6209336;28;80589;-71
2021/10/09 12:22:25;;;;;;;12.65;6.93;;;25.90;29.70;;;;;;6208632;28;80521;-71
2021/10/09 12:25:28;;;;;;;10.48;6.10;;;25.80;29.40;;;;;;6209226;28;80495;-70
2021/10/09 12:28:28;;;;;;;10.82;6.72;;;25.90;29.70;;;;;;6209024;28;80810;-71
2021/10/09 12:31:29;;;;;;;13.82;6.30;;;25.80;29.50;;;;;;6208886;28;80264;-71
2021/10/09 12:34:29;;;;;;;9.82;6.22;;;25.80;29.50;;;;;;6208860;28;80709;-71
2021/10/09 12:37:30;;;;;;;16.13;6.07;;;25.80;29.30;;;;;;6209370;28;80651;-70
2021/10/09 12:40:30;;;;;;;10.90;6.22;;;25.80;29.10;;;;;;6208327;28;81503;-71
2021/10/09 12:43:31;;;;;;;10.27;6.22;;;25.80;28.60;;;;;;6209489;28;80694;-72
2021/10/09 12:46:31;;;;;;;9.65;6.63;;;25.80;28.60;;;;;;6210884;28;81909;-71
2021/10/09 12:49:32;;;;;;;8.93;5.90;;;25.80;28.60;;;;;;6208832;28;81362;-70
2021/10/09 12:52:34;;;;;;;9.10;6.07;;;25.80;29.10;;;;;;6213533;28;80190;-71
2021/10/09 12:55:34;;;;;;;9.82;6.00;;;25.80;29.60;;;;;;6213785;28;80814;-71
2021/10/09 12:58:35;;;;;;;9.60;6.30;;;25.80;30.00;;;;;;6213419;28;80361;-71
2021/10/09 13:01:35;;;;;;;9.40;5.90;;;25.80;30.20;;;;;;6213525;28;81019;-71
2021/10/09 13:04:37;;;;;;;10.55;6.40;;;25.80;30.50;;;;;;6213706;28;80062;-71
2021/10/09 13:07:38;;;;;;;11.68;6.63;;;25.80;30.90;;;;;;6213603;28;80302;-71
2021/10/09 13:10:41;;;;;;;10.38;5.57;;;25.80;31.10;;;;;;6213343;28;80858;-71
2021/10/09 13:13:45;;;;;;;9.75;5.82;;;25.80;31.50;;;;;;6213043;28;80244;-71
2021/10/09 13:16:46;;;;;;;10.13;5.88;;;25.70;31.80;;;;;;6212633;28;80518;-71
2021/10/09 13:19:46;;;;;;;8.07;5.93;;;25.80;32.40;;;;;;6218341;28;81677;-71
2021/10/09 13:22:47;;;;;;;10.30;6.35;;;25.80;32.60;;;;;;6213314;28;80557;-68
2021/10/09 13:25:47;;;;;;;17.98;6.55;;;25.80;32.60;;;;;;6191422;28;82566;-69
2021/10/09 13:28:48;;;;;;;10.38;6.00;;;25.80;32.80;;;;;;6209593;28;80333;-71
2021/10/09 13:31:48;;;;;;;8.45;5.70;;;25.80;33.10;;;;;;6199663;28;80248;-71
2021/10/09 13:34:49;;;;;;;11.50;6.53;;;25.80;33.30;;;;;;6209906;28;80726;-72
2021/10/09 13:37:50;;;;;;;8.55;6.32;;;25.80;33.30;;;;;;6209730;28;81041;-71
2021/10/09 13:40:51;;;;;;;10.18;6.32;;;25.80;33.50;;;;;;6208917;28;80601;-72
2021/10/09 13:43:51;;;;;;;9.23;6.03;;;25.80;33.50;;;;;;6209235;28;80396;-72
2021/10/09 13:46:52;;;;;;;9.82;6.43;;;25.80;33.70;;;;;;6200026;28;80432;-72
2021/10/09 13:49:52;;;;;;;10.75;6.03;;;25.80;33.70;;;;;;6208738;28;80605;-74
2021/10/09 13:52:53;;;;;;;10.15;6.88;;;25.80;33.60;;;;;;6208914;28;80633;-73
2021/10/09 13:55:54;;;;;;;10.60;6.30;;;25.80;33.80;;;;;;6208549;28;81052;-72
2021/10/09 13:58:54;;;;;;;9.70;6.78;;;25.80;33.90;;;;;;6207936;28;81263;-69
2021/10/09 14:01:55;;;;;;;10.75;6.28;;;25.80;34.10;;;;;;6204721;28;80657;-69
2021/10/09 14:04:56;;;;;;;13.25;6.80;;;25.80;33.80;;;;;;6202842;28;80468;-69
2021/10/09 14:07:56;;;;;;;11.77;7.53;;;25.80;32.90;;;;;;6208291;28;82002;-69
2021/10/09 14:10:57;;;;;;;17.33;7.47;;;25.80;31.70;;;;;;6207436;28;82019;-70
2021/10/09 14:13:57;;;;;;;12.70;7.43;;;25.80;31.50;;;;;;6208114;28;80795;-71
2021/10/09 14:16:58;;;;;;;13.18;7.60;;;25.70;31.40;;;;;;6208242;28;80567;-70
2021/10/09 14:19:58;;;;;;;13.88;8.18;;;25.70;30.90;;;;;;6208069;28;80354;-70
2021/10/09 14:23:01;;;;;;;18.10;7.93;;;25.70;31.10;;;;;;6208956;28;79991;-70
2021/10/09 14:26:02;;;;;;;13.45;6.95;;;25.70;31.10;;;;;;6207782;28;80556;-69
2021/10/09 14:29:02;;;;;;;12.90;7.53;;;25.70;31.20;;;;;;6207898;28;81257;-71
2021/10/09 14:32:03;;;;;;;14.48;8.68;;;25.70;30.80;;;;;;6207047;28;80749;-71
2021/10/09 14:35:03;;;;;;;15.00;8.15;;;25.70;30.80;;;;;;6207534;28;80603;-70
2021/10/09 14:38:04;;;;;;;13.68;7.90;;;25.70;30.80;;;;;;6207245;28;80540;-69
2021/10/09 14:41:06;;;;;;;15.60;7.45;;;25.70;30.40;;;;;;6203370;28;81410;-70
2021/10/09 14:44:06;;;;;;;14.10;8.75;;;25.70;30.30;;;;;;6206757;28;80561;-70
2021/10/09 14:50:38;;;;;;;16.23;8.07;;;25.70;30.30;;;;;;6198189;28;81060;-71
2021/10/09 15:19:53;;;;;;;13.13;7.93;;;25.50;31.10;;;;;;6207013;28;80809;-70
2021/10/09 15:22:53;;;;;;;18.10;8.02;;;25.50;31.00;;;;;;6206019;28;81512;-69
2021/10/09 15:25:54;;;;;;;14.35;8.85;;;25.50;31.10;;;;;;6195571;28;81910;-68
2021/10/09 15:28:54;;;;;;;13.80;7.72;;;25.50;31.20;;;;;;6208688;28;80982;-68
2021/10/09 15:31:55;;;;;;;14.55;8.40;;;25.50;31.60;;;;;;6192479;28;80966;-68
2021/10/09 15:34:56;;;;;;;11.88;7.40;;;25.50;31.50;;;;;;6209684;28;80664;-68
2021/10/09 15:37:57;;;;;;;13.27;7.40;;;25.50;31.50;;;;;;6209383;28;81540;-68
2021/10/09 15:40:57;;;;;;;11.65;7.72;;;25.50;32.50;;;;;;6208369;28;80770;-69
2021/10/09 15:43:58;;;;;;;12.70;7.45;;;25.40;32.00;;;;;;6209460;28;81517;-67
2021/10/09 15:46:59;;;;;;;14.30;7.78;;;25.40;32.10;;;;;;6200368;28;80003;-69
2021/10/09 15:49:59;;;;;;;14.15;8.20;;;25.40;32.40;;;;;;6209003;28;80943;-69
2021/10/09 15:53:00;;;;;;;14.40;7.65;;;25.40;32.50;;;;;;6207938;28;81280;-69
2021/10/09 15:56:00;;;;;;;15.55;7.82;;;25.40;32.30;;;;;;6208395;28;81114;-69
2021/10/09 15:59:01;;;;;;;14.70;8.75;;;25.40;32.30;;;;;;6205691;28;81480;-69
2021/10/09 16:02:01;;;;;;;11.93;7.63;;;25.40;32.50;;;;;;6209378;28;80400;-70
2021/10/09 16:05:02;;;;;;;13.77;8.07;;;25.40;33.10;;;;;;6209243;28;80651;-70
2021/10/09 16:08:02;;;;;;;17.02;8.68;;;25.40;33.00;;;;;;6209745;28;80452;-71
2021/10/09 16:11:04;;;;;;;13.45;8.55;;;25.40;32.70;;;;;;6206988;28;81730;-70
2021/10/09 16:14:08;;;;;;;17.45;8.68;;;25.30;32.80;;;;;;6207940;28;80471;-72
2021/10/09 16:17:08;;;;;;;98.13;41.25;;;25.30;32.90;;;;;;6207896;28;80961;-69
2021/10/09 16:20:09;;;;;;;140.68;51.33;;;25.30;32.70;;;;;;6204805;28;83081;-69
2021/10/09 16:23:10;;;;;;;142.85;57.55;;;25.30;33.00;;;;;;6205035;28;83037;-68
2021/10/09 16:26:10;;;;;;;252.00;97.00;;;25.30;33.00;;;;;;6210399;28;84087;-69
2021/10/09 16:29:11;;;;;;;209.18;85.45;;;25.30;33.00;;;;;;6212288;28;82966;-70
2021/10/09 16:32:11;;;;;;;190.10;77.68;;;25.30;32.90;;;;;;6210062;28;83844;-70
2021/10/09 16:35:12;;;;;;;174.95;68.65;;;25.20;33.00;;;;;;6209100;28;83038;-70
2021/10/09 16:38:13;;;;;;;146.40;59.53;;;25.20;33.30;;;;;;6209468;28;84431;-71
2021/10/09 16:41:13;;;;;;;128.88;51.10;;;25.20;33.10;;;;;;6191572;28;84423;-71
2021/10/09 16:44:14;;;;;;;122.25;45.53;;;25.20;32.90;;;;;;6209910;28;83472;-72
2021/10/09 16:47:14;;;;;;;111.78;43.85;;;25.20;33.10;;;;;;6209730;28;82853;-72
2021/10/09 16:50:15;;;;;;;93.55;39.95;;;25.30;33.10;;;;;;6208947;28;83473;-71
2021/10/09 16:53:15;;;;;;;85.05;35.35;;;25.20;33.00;;;;;;6209132;28;84195;-72
2021/10/09 16:56:16;;;;;;;80.18;33.65;;;25.20;32.90;;;;;;6209363;28;83076;-70
2021/10/09 16:59:17;;;;;;;66.30;30.13;;;25.20;32.90;;;;;;6190971;28;86584;-72
2021/10/09 17:02:17;;;;;;;67.70;27.90;;;25.20;32.60;;;;;;6209080;28;83230;-73
2021/10/09 17:05:18;;;;;;;63.47;27.35;;;25.10;32.80;;;;;;6208279;28;83318;-72
2021/10/09 17:08:19;;;;;;;59.35;25.20;;;25.10;32.60;;;;;;6208700;28;83466;-72
2021/10/09 17:11:23;;;;;;;65.13;25.67;;;25.10;32.60;;;;;;6208802;28;83825;-71
2021/10/09 17:14:24;;;;;;;49.05;23.20;;;25.10;32.80;;;;;;6208011;28;84035;-72
2021/10/09 17:17:24;;;;;;;46.53;21.00;;;25.10;32.60;;;;;;6208941;28;83174;-71
2021/10/09 17:20:26;;;;;;;45.22;22.70;;;25.10;32.80;;;;;;6208775;28;83052;-70
2021/10/09 17:23:27;;;;;;;44.65;20.45;;;25.10;33.00;;;;;;6208540;28;84041;-70
2021/10/09 17:26:27;;;;;;;41.88;19.90;;;25.10;33.60;;;;;;6208391;28;82924;-70
2021/10/09 17:29:28;;;;;;;40.28;19.90;;;25.10;33.20;;;;;;6208161;28;82905;-70
2021/10/09 17:32:28;;;;;;;46.20;19.70;;;25.10;33.50;;;;;;6207402;28;83395;-69
2021/10/09 17:35:32;;;;;;;40.97;18.70;;;25.10;34.20;;;;;;6207393;28;84070;-68
2021/10/09 17:38:33;;;;;;;35.90;18.15;;;25.10;34.20;;;;;;6205542;28;82911;-68
2021/10/09 17:41:33;;;;;;;37.75;17.55;;;25.10;34.60;;;;;;6208227;28;83165;-71
2021/10/09 17:44:36;;;;;;;31.48;15.82;;;25.10;34.90;;;;;;6209345;28;83072;-70
2021/10/09 17:47:37;;;;;;;27.65;16.33;;;25.10;34.60;;;;;;6192154;28;84768;-68
2021/10/09 17:50:39;;;;;;;30.27;16.05;;;25.10;35.10;;;;;;6206145;28;84061;-72
2021/10/09 17:53:40;;;;;;;31.40;17.17;;;25.10;34.80;;;;;;6211695;28;83496;-70